createdAt,value
2022-12-25T00:01:58.118Z,97796.75
2022-12-25T00:04:24.834Z,97789.19
2022-12-25T00:06:51.533Z,97793.50
2022-12-25T00:09:18.202Z,97797.56
2022-12-25T00:11:44.925Z,97797.38
2022-12-25T00:14:11.592Z,97809.59
2022-12-25T00:16:38.299Z,97816.66
2022-12-25T00:19:04.946Z,97814.84
2022-12-25T00:21:31.638Z,97812.22
2022-12-25T00:23:58.264Z,97812.50
2022-12-25T00:26:25.115Z,97812.66
2022-12-25T00:28:51.755Z,97809.22
2022-12-25T00:31:18.441Z,97819.53
2022-12-25T00:33:45.206Z,97813.28
2022-12-25T00:36:12.117Z,97821.94
2022-12-25T00:38:38.749Z,97830.97
2022-12-25T00:41:05.771Z,97836.56
2022-12-25T00:43:32.471Z,97831.84
2022-12-25T00:45:59.185Z,97828.91
2022-12-25T00:48:25.866Z,97840.72
2022-12-25T00:50:52.639Z,97837.75
2022-12-25T00:53:19.337Z,97840.31
2022-12-25T00:55:45.978Z,97843.28
2022-12-25T00:58:12.689Z,97846.31
2022-12-25T01:00:39.563Z,97852.84
2022-12-25T01:03:06.479Z,97844.94
2022-12-25T01:05:33.241Z,97848.41
2022-12-25T01:07:59.942Z,97841.47
2022-12-25T01:10:26.860Z,97850.16
2022-12-25T01:12:53.503Z,97848.53
2022-12-25T01:15:20.185Z,97855.81
2022-12-25T01:17:46.875Z,97857.28
2022-12-25T01:20:13.539Z,97853.19
2022-12-25T01:22:40.147Z,97864.00
2022-12-25T01:25:06.974Z,97864.34
2022-12-25T01:27:33.616Z,97868.28
2022-12-25T01:30:00.328Z,97868.78
2022-12-25T01:32:27.027Z,97873.84
2022-12-25T01:34:56.026Z,97882.03
2022-12-25T01:37:23.112Z,97881.72
2022-12-25T01:39:49.799Z,97878.44
2022-12-25T01:42:16.454Z,97879.75
2022-12-25T01:44:43.143Z,97874.97
2022-12-25T01:47:09.991Z,97867.28
2022-12-25T01:49:36.628Z,97847.13
2022-12-25T01:52:03.263Z,97847.59
2022-12-25T01:54:29.972Z,97842.03
2022-12-25T01:56:56.656Z,97836.16
2022-12-25T01:59:23.305Z,97838.59
2022-12-25T02:01:50.026Z,97836.94
2022-12-25T02:04:16.784Z,97834.13
2022-12-25T02:06:43.399Z,97833.47
2022-12-25T02:09:10.224Z,97837.91
2022-12-25T02:11:36.871Z,97846.94
2022-12-25T02:14:03.477Z,97852.16
2022-12-25T02:16:30.214Z,97857.56
2022-12-25T02:18:57.072Z,97872.69
2022-12-25T02:21:24.037Z,97864.34
2022-12-25T02:23:50.654Z,97865.63
2022-12-25T02:26:17.271Z,97864.31
2022-12-25T02:28:45.976Z,97865.50
2022-12-25T02:31:12.903Z,97871.06
2022-12-25T02:33:39.610Z,97867.97
2022-12-25T02:36:06.514Z,97862.03
2022-12-25T02:38:33.186Z,97852.22
2022-12-25T02:40:59.897Z,97858.09
2022-12-25T02:43:26.689Z,97861.84
2022-12-25T02:45:53.396Z,97859.03
2022-12-25T02:48:20.083Z,97846.25
2022-12-25T02:50:46.779Z,97852.66
2022-12-25T02:53:13.441Z,97864.97
2022-12-25T02:55:40.338Z,97860.41
2022-12-25T02:58:07.034Z,97859.09
2022-12-25T03:00:33.741Z,97858.59
2022-12-25T03:03:00.487Z,97846.94
2022-12-25T03:05:27.381Z,97844.34
2022-12-25T03:07:54.230Z,97849.75
2022-12-25T03:10:20.913Z,97848.13
2022-12-25T03:12:47.653Z,97838.44
2022-12-25T03:15:14.352Z,97843.97
2022-12-25T03:17:41.012Z,97846.31
2022-12-25T03:20:07.652Z,97840.22
2022-12-25T03:22:34.545Z,97832.19
2022-12-25T03:25:01.211Z,97835.00
2022-12-25T03:27:27.882Z,97828.44
2022-12-25T03:29:54.776Z,97819.28
2022-12-25T03:32:21.436Z,97813.84
2022-12-25T03:34:48.099Z,97818.47
2022-12-25T03:37:14.709Z,97815.16
2022-12-25T03:39:41.561Z,97814.34
2022-12-25T03:42:08.269Z,97817.47
2022-12-25T03:44:34.893Z,97824.16
2022-12-25T03:47:01.555Z,97827.25
2022-12-25T03:49:28.267Z,97832.50
2022-12-25T03:51:54.884Z,97835.63
2022-12-25T03:54:21.567Z,97837.56
2022-12-25T03:56:48.211Z,97840.38
2022-12-25T03:59:19.475Z,97843.28
2022-12-25T04:01:50.271Z,97841.81
2022-12-25T04:04:17.014Z,97839.84
2022-12-25T04:06:43.671Z,97849.31
2022-12-25T04:09:10.339Z,97860.44
2022-12-25T04:11:37.132Z,97853.22
2022-12-25T04:14:03.768Z,97855.97
2022-12-25T04:16:30.435Z,97853.06
2022-12-25T04:18:57.105Z,97853.50
2022-12-25T04:21:23.745Z,97863.00
2022-12-25T04:23:50.429Z,97865.31
2022-12-25T04:26:17.341Z,97877.94
2022-12-25T04:28:44.030Z,97878.88
2022-12-25T04:31:10.702Z,97868.00
2022-12-25T04:33:37.435Z,97872.97
2022-12-25T04:36:04.085Z,97856.53
2022-12-25T04:38:30.751Z,97853.69
2022-12-25T04:40:57.368Z,97855.63
2022-12-25T04:43:23.998Z,97850.06
2022-12-25T04:45:50.619Z,97850.09
2022-12-25T04:48:17.297Z,97857.75
2022-12-25T04:50:44.034Z,97853.09
2022-12-25T04:53:10.673Z,97862.63
2022-12-25T04:55:37.355Z,97868.72
2022-12-25T04:58:04.043Z,97866.69
2022-12-25T05:00:30.667Z,97874.38
2022-12-25T05:02:57.500Z,97868.47
2022-12-25T05:05:24.314Z,97869.53
2022-12-25T05:07:51.024Z,97865.72
2022-12-25T05:10:17.703Z,97866.44
2022-12-25T05:12:44.437Z,97867.34
2022-12-25T05:15:11.090Z,97871.84
2022-12-25T05:17:37.791Z,97870.13
2022-12-25T05:20:04.465Z,97863.09
2022-12-25T05:22:31.177Z,97849.19
2022-12-25T05:24:57.882Z,97852.09
2022-12-25T05:27:24.644Z,97864.81
2022-12-25T05:29:51.303Z,97859.25
2022-12-25T05:32:17.943Z,97856.47
2022-12-25T05:34:44.576Z,97854.78
2022-12-25T05:37:11.241Z,97863.69
2022-12-25T05:39:38.187Z,97853.25
2022-12-25T05:42:04.844Z,97851.16
2022-12-25T05:44:31.589Z,97854.22
2022-12-25T05:46:58.308Z,97857.81
2022-12-25T05:49:25.062Z,97863.06
2022-12-25T05:51:51.763Z,97867.06
2022-12-25T05:54:18.411Z,97870.66
2022-12-25T05:56:45.057Z,97876.94
2022-12-25T05:59:11.847Z,97880.47
2022-12-25T06:01:38.628Z,97887.78
2022-12-25T06:04:10.325Z,97885.63
2022-12-25T06:06:39.210Z,97878.53
2022-12-25T06:09:06.094Z,97880.31
2022-12-25T06:11:32.746Z,97880.63
2022-12-25T06:13:59.350Z,97891.59
2022-12-25T06:16:26.317Z,97893.59
2022-12-25T06:18:53.175Z,97895.59
2022-12-25T06:21:19.885Z,97895.81
2022-12-25T06:23:46.729Z,97891.91
2022-12-25T06:26:13.405Z,97894.59
2022-12-25T06:28:40.037Z,97901.00
2022-12-25T06:31:06.725Z,97899.53
2022-12-25T06:33:33.433Z,97895.91
2022-12-25T06:36:00.105Z,97900.81
2022-12-25T06:38:27.263Z,97903.81
2022-12-25T06:40:53.898Z,97904.63
2022-12-25T06:43:20.752Z,97905.91
2022-12-25T06:45:47.474Z,97916.59
2022-12-25T06:48:14.157Z,97910.97
2022-12-25T06:50:40.847Z,97919.94
2022-12-25T06:53:07.554Z,97921.44
2022-12-25T06:55:34.375Z,97919.19
2022-12-25T06:58:01.078Z,97915.97
2022-12-25T07:00:27.813Z,97906.00
2022-12-25T07:02:54.646Z,97913.84
2022-12-25T07:05:21.464Z,97911.38
2022-12-25T07:07:48.165Z,97909.94
2022-12-25T07:10:14.816Z,97921.13
2022-12-25T07:12:41.469Z,97906.81
2022-12-25T07:15:08.175Z,97904.03
2022-12-25T07:17:34.816Z,97918.50
2022-12-25T07:20:01.558Z,97918.09
2022-12-25T07:22:28.205Z,97922.88
2022-12-25T07:24:54.845Z,97918.59
2022-12-25T07:27:21.498Z,97923.13
2022-12-25T07:29:48.119Z,97941.75
2022-12-25T07:32:14.773Z,97941.91
2022-12-25T07:34:41.520Z,97946.44
2022-12-25T07:37:08.164Z,97946.50
2022-12-25T07:39:34.779Z,97953.47
2022-12-25T07:42:01.479Z,97956.19
2022-12-25T07:44:28.232Z,97957.34
2022-12-25T07:46:54.880Z,97952.09
2022-12-25T07:49:21.647Z,97957.00
2022-12-25T07:51:48.323Z,97959.91
2022-12-25T07:54:15.050Z,97966.84
2022-12-25T07:56:41.692Z,97971.69
2022-12-25T07:59:08.364Z,97965.22
2022-12-25T08:01:35.195Z,97958.56
2022-12-25T08:04:02.128Z,97964.16
2022-12-25T08:06:28.947Z,97966.00
2022-12-25T08:08:55.622Z,97961.91
2022-12-25T08:11:22.240Z,97962.34
2022-12-25T08:13:48.911Z,97975.13
2022-12-25T08:16:15.652Z,97971.69
2022-12-25T08:18:42.515Z,97969.06
2022-12-25T08:21:09.324Z,97977.91
2022-12-25T08:23:35.971Z,97970.59
2022-12-25T08:26:05.578Z,97970.63
2022-12-25T08:28:32.741Z,97977.63
2022-12-25T08:30:59.486Z,97964.06
2022-12-25T08:33:26.198Z,97975.44
2022-12-25T08:35:52.841Z,97977.28
2022-12-25T08:38:19.454Z,97966.31
2022-12-25T08:40:46.158Z,97964.19
2022-12-25T08:43:12.764Z,97965.34
2022-12-25T08:45:39.451Z,97969.44
2022-12-25T08:48:06.163Z,97966.47
2022-12-25T08:50:32.809Z,97974.31
2022-12-25T08:52:59.610Z,97975.16
2022-12-25T08:55:26.345Z,97970.88
2022-12-25T08:57:53.076Z,97963.69
2022-12-25T09:00:19.714Z,97961.38
2022-12-25T09:02:46.465Z,97966.28
2022-12-25T09:05:13.153Z,97971.47
2022-12-25T09:07:39.796Z,97969.50
2022-12-25T09:10:06.574Z,97969.13
2022-12-25T09:12:33.232Z,97970.25
2022-12-25T09:14:59.898Z,97969.81
2022-12-25T09:17:26.631Z,97969.66
2022-12-25T09:19:53.352Z,97976.75
2022-12-25T09:22:20.087Z,97972.28
2022-12-25T09:24:46.960Z,97969.06
2022-12-25T09:27:13.762Z,97967.78
2022-12-25T09:29:40.458Z,97960.59
2022-12-25T09:32:07.152Z,97962.91
2022-12-25T09:34:33.864Z,97965.00
2022-12-25T09:37:00.517Z,97971.66
2022-12-25T09:39:27.275Z,97959.63
2022-12-25T09:41:53.931Z,97965.28
2022-12-25T09:44:20.576Z,97959.94
2022-12-25T09:46:47.335Z,97958.47
2022-12-25T09:49:14.165Z,97959.06
2022-12-25T09:51:40.823Z,97955.69
2022-12-25T09:54:07.534Z,97955.06
2022-12-25T09:56:34.171Z,97960.56
2022-12-25T09:59:01.031Z,97953.66
2022-12-25T10:01:27.821Z,97947.06
2022-12-25T10:03:54.604Z,97942.66
2022-12-25T10:06:21.296Z,97928.59
2022-12-25T10:08:47.962Z,97932.94
2022-12-25T10:11:14.582Z,97937.13
2022-12-25T10:13:41.243Z,97930.28
2022-12-25T10:16:08.047Z,97929.25
2022-12-25T10:18:34.844Z,97928.44
2022-12-25T10:21:01.541Z,97921.75
2022-12-25T10:23:28.227Z,97914.97
2022-12-25T10:25:54.904Z,97906.97
2022-12-25T10:28:21.551Z,97902.63
2022-12-25T10:30:48.319Z,97905.13
2022-12-25T10:33:17.085Z,97897.00
2022-12-25T10:35:44.194Z,97891.34
2022-12-25T10:38:10.904Z,97890.38
2022-12-25T10:40:37.589Z,97885.72
2022-12-25T10:43:04.245Z,97879.81
2022-12-25T10:45:30.920Z,97882.47
2022-12-25T10:48:05.012Z,97885.94
2022-12-25T10:50:33.673Z,97885.56
2022-12-25T10:53:00.346Z,97877.44
2022-12-25T10:55:29.524Z,97882.72
2022-12-25T10:57:56.572Z,97884.53
2022-12-25T11:00:23.277Z,97873.66
2022-12-25T11:02:50.126Z,97875.72
2022-12-25T11:05:16.951Z,97867.88
2022-12-25T11:07:43.671Z,97872.66
2022-12-25T11:10:10.364Z,97868.91
2022-12-25T11:12:36.999Z,97863.16
2022-12-25T11:15:03.728Z,97866.06
2022-12-25T11:17:30.423Z,97866.94
2022-12-25T11:19:57.118Z,97867.25
2022-12-25T11:22:23.796Z,97866.53
2022-12-25T11:24:50.471Z,97856.28
2022-12-25T11:27:17.209Z,97852.59
2022-12-25T11:29:43.907Z,97848.00
2022-12-25T11:32:10.665Z,97842.88
2022-12-25T11:34:37.335Z,97834.56
2022-12-25T11:37:04.021Z,97838.38
2022-12-25T11:39:30.732Z,97833.66
2022-12-25T11:41:57.460Z,97827.31
2022-12-25T11:44:24.134Z,97833.81
2022-12-25T11:46:50.846Z,97825.91
2022-12-25T11:49:17.537Z,97822.41
2022-12-25T11:51:44.228Z,97822.28
2022-12-25T11:54:10.907Z,97819.78
2022-12-25T11:56:37.575Z,97818.16
2022-12-25T11:59:04.265Z,97819.00
2022-12-25T12:01:31.005Z,97824.13
2022-12-25T12:03:57.758Z,97821.25
2022-12-25T12:06:24.453Z,97815.28
2022-12-25T12:08:51.258Z,97823.53
2022-12-25T12:11:17.985Z,97812.28
2022-12-25T12:13:44.735Z,97808.94
2022-12-25T12:16:11.512Z,97795.09
2022-12-25T12:18:38.241Z,97790.53
2022-12-25T12:21:04.874Z,97792.50
2022-12-25T12:23:31.500Z,97799.53
2022-12-25T12:25:58.162Z,97805.94
2022-12-25T12:28:24.841Z,97815.34
2022-12-25T12:30:51.550Z,97805.59
2022-12-25T12:33:18.197Z,97803.66
2022-12-25T12:35:44.905Z,97797.75
2022-12-25T12:38:11.593Z,97784.91
2022-12-25T12:40:38.473Z,97788.41
2022-12-25T12:43:05.110Z,97791.88
2022-12-25T12:45:31.846Z,97790.00
2022-12-25T12:47:58.611Z,97792.56
2022-12-25T12:50:25.316Z,97797.03
2022-12-25T12:52:51.989Z,97798.59
2022-12-25T12:55:18.638Z,97795.34
2022-12-25T12:57:45.366Z,97789.53
2022-12-25T13:00:12.110Z,97787.97
2022-12-25T13:02:38.880Z,97798.25
2022-12-25T13:05:05.713Z,97793.47
2022-12-25T13:07:32.422Z,97795.06
2022-12-25T13:09:59.130Z,97790.03
2022-12-25T13:12:25.853Z,97793.78
2022-12-25T13:14:52.542Z,97792.66
2022-12-25T13:17:19.195Z,97784.69
2022-12-25T13:19:45.848Z,97781.91
2022-12-25T13:22:12.536Z,97783.13
2022-12-25T13:24:39.269Z,97775.75
2022-12-25T13:27:05.952Z,97778.38
2022-12-25T13:29:32.657Z,97777.28
2022-12-25T13:31:59.377Z,97780.31
2022-12-25T13:34:26.047Z,97783.56
2022-12-25T13:36:52.725Z,97785.13
2022-12-25T13:39:19.467Z,97787.53
2022-12-25T13:41:46.141Z,97791.00
2022-12-25T13:44:12.776Z,97794.09
2022-12-25T13:46:39.439Z,97800.50
2022-12-25T13:49:06.166Z,97799.72
2022-12-25T13:51:32.826Z,97804.25
2022-12-25T13:53:59.591Z,97806.91
2022-12-25T13:56:26.235Z,97807.31
2022-12-25T13:58:52.957Z,97793.25
2022-12-25T14:01:19.814Z,97791.44
2022-12-25T14:03:46.547Z,97789.00
2022-12-25T14:06:13.263Z,97790.22
2022-12-25T14:08:39.931Z,97792.44
2022-12-25T14:11:06.584Z,97803.84
2022-12-25T14:13:33.214Z,97802.22
2022-12-25T14:15:59.854Z,97796.13
2022-12-25T14:18:26.541Z,97800.19
2022-12-25T14:20:53.186Z,97799.78
2022-12-25T14:23:19.903Z,97792.44
2022-12-25T14:25:46.584Z,97792.47
2022-12-25T14:28:13.300Z,97783.91
2022-12-25T14:30:40.020Z,97790.03
2022-12-25T14:33:06.685Z,97792.47
2022-12-25T14:35:33.387Z,97804.28
2022-12-25T14:38:00.379Z,97803.28
2022-12-25T14:40:27.213Z,97800.63
2022-12-25T14:42:53.877Z,97802.25
2022-12-25T14:45:20.499Z,97805.91
2022-12-25T14:47:47.171Z,97804.06
2022-12-25T14:50:13.904Z,97805.06
2022-12-25T14:52:40.533Z,97808.13
2022-12-25T14:55:07.167Z,97809.31
2022-12-25T14:57:33.835Z,97816.41
2022-12-25T15:00:00.566Z,97816.22
2022-12-25T15:02:27.353Z,97814.06
2022-12-25T15:04:54.088Z,97812.59
2022-12-25T15:07:21.176Z,97809.31
2022-12-25T15:09:47.873Z,97808.50
2022-12-25T15:12:14.564Z,97810.81
2022-12-25T15:14:41.263Z,97808.31
2022-12-25T15:17:07.905Z,97802.22
2022-12-25T15:19:37.813Z,97802.13
2022-12-25T15:22:05.219Z,97795.56
2022-12-25T15:24:31.944Z,97800.19
2022-12-25T15:26:58.592Z,97798.66
2022-12-25T15:29:59.684Z,97806.69
2022-12-25T15:32:12.104Z,97809.31
2022-12-25T15:34:38.752Z,97802.78
2022-12-25T15:37:05.454Z,97812.66
2022-12-25T15:39:32.103Z,97820.44
2022-12-25T15:41:58.775Z,97815.03
2022-12-25T15:44:25.449Z,97823.75
2022-12-25T15:46:52.186Z,97822.06
2022-12-25T15:49:18.945Z,97820.00
2022-12-25T15:51:45.733Z,97817.00
2022-12-25T15:54:12.447Z,97808.94
2022-12-25T15:56:39.058Z,97808.00
2022-12-25T15:59:05.702Z,97817.38
2022-12-25T16:01:32.475Z,97825.09
2022-12-25T16:03:59.247Z,97820.81
2022-12-25T16:06:25.922Z,97817.66
2022-12-25T16:08:52.646Z,97821.75
2022-12-25T16:11:19.310Z,97814.53
2022-12-25T16:13:45.996Z,97806.63
2022-12-25T16:16:12.744Z,97800.63
2022-12-25T16:18:46.751Z,97804.69
2022-12-25T16:21:13.990Z,97800.81
2022-12-25T16:23:40.722Z,97807.88
2022-12-25T16:26:07.395Z,97807.41
2022-12-25T16:28:34.102Z,97797.03
2022-12-25T16:31:00.807Z,97797.66
2022-12-25T16:33:27.498Z,97799.72
2022-12-25T16:35:54.221Z,97797.88
2022-12-25T16:38:20.861Z,97799.13
2022-12-25T16:40:47.510Z,97794.66
2022-12-25T16:43:18.870Z,97796.75
2022-12-25T16:45:48.661Z,97797.81
2022-12-25T16:48:15.308Z,97801.91
2022-12-25T16:50:42.038Z,97795.84
2022-12-25T16:53:08.699Z,97784.22
2022-12-25T16:55:35.413Z,97795.13
2022-12-25T16:58:02.176Z,97796.25
2022-12-25T17:00:28.901Z,97806.22
2022-12-25T17:02:55.740Z,97801.84
2022-12-25T17:05:22.634Z,97792.59
2022-12-25T17:07:49.575Z,97807.88
2022-12-25T17:10:16.294Z,97811.44
2022-12-25T17:12:42.980Z,97805.50
2022-12-25T17:15:09.673Z,97801.91
2022-12-25T17:17:36.313Z,97797.72
2022-12-25T17:20:03.031Z,97798.75
2022-12-25T17:22:29.841Z,97792.50
2022-12-25T17:24:57.968Z,97795.78
2022-12-25T17:27:24.615Z,97801.88
2022-12-25T17:29:51.273Z,97804.97
2022-12-25T17:32:17.975Z,97797.78
2022-12-25T17:34:44.664Z,97793.84
2022-12-25T17:37:11.336Z,97798.28
2022-12-25T17:39:38.033Z,97792.38
2022-12-25T17:42:04.696Z,97794.19
2022-12-25T17:44:31.470Z,97798.97
2022-12-25T17:46:58.182Z,97803.22
2022-12-25T17:49:24.885Z,97797.31
2022-12-25T17:51:51.626Z,97799.63
2022-12-25T17:54:18.377Z,97799.25
2022-12-25T17:56:45.025Z,97797.63
2022-12-25T17:59:11.646Z,97796.50
2022-12-25T18:01:38.417Z,97781.91
2022-12-25T18:04:05.309Z,97779.28
2022-12-25T18:06:32.067Z,97779.09
2022-12-25T18:08:58.804Z,97772.72
2022-12-25T18:11:25.568Z,97774.84
2022-12-25T18:13:52.352Z,97777.81
2022-12-25T18:16:19.131Z,97783.03
2022-12-25T18:18:51.880Z,97773.22
2022-12-25T18:21:18.762Z,97785.00
2022-12-25T18:23:45.450Z,97785.16
2022-12-25T18:26:12.092Z,97789.09
2022-12-25T18:28:38.789Z,97799.06
2022-12-25T18:31:05.527Z,97805.94
2022-12-25T18:33:32.544Z,97792.03
2022-12-25T18:35:59.231Z,97788.09
2022-12-25T18:38:26.960Z,97782.34
2022-12-25T18:40:53.634Z,97779.09
2022-12-25T18:43:20.320Z,97766.66
2022-12-25T18:45:47.034Z,97757.81
2022-12-25T18:48:13.767Z,97757.31
2022-12-25T18:50:40.426Z,97744.53
2022-12-25T18:53:07.096Z,97746.19
2022-12-25T18:55:33.822Z,97748.72
2022-12-25T18:58:00.556Z,97750.75
2022-12-25T19:00:27.227Z,97757.75
2022-12-25T19:02:54.230Z,97763.94
2022-12-25T19:05:21.048Z,97760.50
2022-12-25T19:07:47.802Z,97757.19
2022-12-25T19:10:14.473Z,97754.63
2022-12-25T19:12:41.106Z,97747.56
2022-12-25T19:15:07.760Z,97739.38
2022-12-25T19:17:34.587Z,97735.91
2022-12-25T19:20:01.267Z,97747.66
2022-12-25T19:22:27.967Z,97744.69
2022-12-25T19:24:54.679Z,97752.53
2022-12-25T19:27:21.380Z,97748.31
2022-12-25T19:29:48.061Z,97753.69
2022-12-25T19:32:14.950Z,97750.69
2022-12-25T19:34:41.646Z,97747.28
2022-12-25T19:37:08.359Z,97748.09
2022-12-25T19:39:35.066Z,97755.19
2022-12-25T19:42:01.789Z,97752.84
2022-12-25T19:44:28.508Z,97751.72
2022-12-25T19:46:55.237Z,97751.69
2022-12-25T19:49:21.948Z,97745.50
2022-12-25T19:51:48.590Z,97748.09
2022-12-25T19:54:15.266Z,97749.59
2022-12-25T19:56:42.027Z,97757.16
2022-12-25T19:59:08.811Z,97754.50
2022-12-25T20:01:35.598Z,97758.19
2022-12-25T20:04:02.428Z,97750.56
2022-12-25T20:06:29.161Z,97744.56
2022-12-25T20:08:55.824Z,97736.75
2022-12-25T20:11:22.459Z,97740.53
2022-12-25T20:13:49.126Z,97733.06
2022-12-25T20:16:15.910Z,97726.47
2022-12-25T20:18:42.566Z,97716.53
2022-12-25T20:21:09.237Z,97724.72
2022-12-25T20:23:35.995Z,97726.91
2022-12-25T20:26:02.651Z,97729.47
2022-12-25T20:28:29.302Z,97728.91
2022-12-25T20:30:55.980Z,97724.22
2022-12-25T20:33:22.671Z,97727.91
2022-12-25T20:35:49.373Z,97727.63
2022-12-25T20:38:16.304Z,97735.47
2022-12-25T20:41:24.447Z,97732.13
2022-12-25T20:43:29.731Z,97719.75
2022-12-25T20:45:56.590Z,97721.47
2022-12-25T20:48:23.287Z,97720.72
2022-12-25T20:50:51.886Z,97711.19
2022-12-25T20:53:18.592Z,97718.03
2022-12-25T20:55:45.373Z,97718.97
2022-12-25T20:58:12.258Z,97722.16
2022-12-25T21:00:38.922Z,97710.66
2022-12-25T21:03:05.750Z,97704.72
2022-12-25T21:05:32.519Z,97713.44
2022-12-25T21:07:59.178Z,97710.75
2022-12-25T21:10:25.890Z,97714.28
2022-12-25T21:12:52.580Z,97708.69
2022-12-25T21:15:19.206Z,97701.63
2022-12-25T21:17:45.869Z,97705.53
2022-12-25T21:20:12.506Z,97693.22
2022-12-25T21:22:39.231Z,97696.88
2022-12-25T21:25:06.004Z,97689.09
2022-12-25T21:27:32.732Z,97679.19
2022-12-25T21:29:59.407Z,97682.72
2022-12-25T21:32:42.207Z,97682.50
2022-12-25T21:35:08.875Z,97684.19
2022-12-25T21:37:35.557Z,97685.16
2022-12-25T21:40:02.293Z,97689.19
2022-12-25T21:42:28.973Z,97701.16
2022-12-25T21:44:55.703Z,97695.34
2022-12-25T21:47:22.374Z,97696.38
2022-12-25T21:49:49.041Z,97690.00
2022-12-25T21:52:15.670Z,97693.09
2022-12-25T21:54:42.335Z,97686.97
2022-12-25T21:57:09.065Z,97702.81
2022-12-25T21:59:35.802Z,97702.31
2022-12-25T22:02:02.758Z,97684.13
2022-12-25T22:04:29.449Z,97679.66
2022-12-25T22:06:56.120Z,97685.03
2022-12-25T22:09:22.795Z,97678.25
2022-12-25T22:11:49.498Z,97694.84
2022-12-25T22:14:16.181Z,97686.38
2022-12-25T22:16:42.855Z,97686.59
2022-12-25T22:19:09.538Z,97687.78
2022-12-25T22:21:36.152Z,97689.50
2022-12-25T22:24:02.784Z,97693.53
2022-12-25T22:26:30.190Z,97691.38
2022-12-25T22:28:56.828Z,97685.97
2022-12-25T22:31:23.520Z,97678.00
2022-12-25T22:33:50.258Z,97681.31
2022-12-25T22:36:16.963Z,97668.22
2022-12-25T22:38:43.643Z,97677.94
2022-12-25T22:41:10.297Z,97675.25
2022-12-25T22:44:15.359Z,97672.13
2022-12-25T22:46:24.035Z,97671.25
2022-12-25T22:48:50.776Z,97666.38
2022-12-25T22:51:17.451Z,97671.63
2022-12-25T22:53:44.090Z,97669.44
2022-12-25T22:56:10.884Z,97668.69
2022-12-25T22:58:37.544Z,97667.28
2022-12-25T23:01:04.286Z,97657.66
2022-12-25T23:03:31.120Z,97652.19
2022-12-25T23:05:57.942Z,97647.56
2022-12-25T23:08:24.623Z,97657.81
2022-12-25T23:10:51.339Z,97658.72
2022-12-25T23:13:18.067Z,97661.03
2022-12-25T23:15:44.820Z,97650.44
2022-12-25T23:18:11.457Z,97653.41
2022-12-25T23:20:38.121Z,97643.00
2022-12-25T23:23:04.797Z,97651.50
2022-12-25T23:25:31.439Z,97648.50
2022-12-25T23:27:58.133Z,97647.84
2022-12-25T23:30:24.823Z,97655.59
2022-12-25T23:32:51.539Z,97657.97
2022-12-25T23:35:18.261Z,97662.66
2022-12-25T23:37:44.920Z,97656.56
2022-12-25T23:40:11.597Z,97664.31
2022-12-25T23:42:38.355Z,97662.50
2022-12-25T23:45:05.022Z,97650.06
2022-12-25T23:47:31.714Z,97648.16
2022-12-25T23:49:58.422Z,97646.06
2022-12-25T23:52:25.130Z,97649.47
2022-12-25T23:54:51.801Z,97641.56
2022-12-25T23:57:18.463Z,97645.00
2022-12-25T23:59:45.105Z,97651.91
